Time;durP1;ratioP1;P1;durP2;ratioP2;P2;SDS_P1;SDS_P2;PMS_P1;PMS_P2;Temp;Humidity;BMP_temperature;BMP_pressure;BME280_temperature;BME280_humidity;BME280_pressure;Samples;Min_cycle;Max_cycle;Signal;HPM_P1;HPM_P2
2022/06/25 00:02:19;;;;;;;8.57;7.57;;;;;;;;;;5057723;28;20343;-73
2022/06/25 00:07:28;;;;;;;10.52;8.27;;;;;;;;;;5058567;28;20039;-74
2022/06/25 00:09:53;;;;;;;8.57;7.78;;;;;;;;;;5061052;28;20028;-74
2022/06/25 00:12:34;;;;;;;10.20;8.73;;;;;;;;;;5059602;28;20028;-75
2022/06/25 00:15:00;;;;;;;10.02;9.02;;;;;;;;;;5051426;28;20036;-74
2022/06/25 00:17:26;;;;;;;10.30;9.02;;;;;;;;;;5053748;28;20073;-74
2022/06/25 00:19:51;;;;;;;9.48;8.23;;;;;;;;;;5056615;28;20455;-73
2022/06/25 00:22:16;;;;;;;13.60;8.40;;;;;;;;;;5058631;28;20029;-74
2022/06/25 00:24:41;;;;;;;12.03;8.93;;;;;;;;;;5059005;28;20024;-74
2022/06/25 00:27:06;;;;;;;10.07;8.52;;;;;;;;;;5058737;28;20316;-74
2022/06/25 00:29:32;;;;;;;11.67;8.43;;;;;;;;;;5052730;28;20505;-73
2022/06/25 00:31:57;;;;;;;10.80;8.32;;;;;;;;;;5059468;28;20109;-73
2022/06/25 00:34:22;;;;;;;9.50;8.60;;;;;;;;;;5055194;28;20040;-74
2022/06/25 00:36:47;;;;;;;9.83;8.83;;;;;;;;;;5056874;28;20031;-73
2022/06/25 00:39:12;;;;;;;11.43;8.70;;;;;;;;;;5056943;28;20085;-74
2022/06/25 00:41:37;;;;;;;12.13;9.00;;;;;;;;;;5061354;28;20338;-73
2022/06/25 00:44:09;;;;;;;9.70;8.73;;;;;;;;;;5053191;28;20036;-73
2022/06/25 00:46:35;;;;;;;10.82;9.27;;;;;;;;;;5053580;28;20478;-73
2022/06/25 00:49:00;;;;;;;9.60;8.50;;;;;;;;;;5058102;28;20028;-74
2022/06/25 00:51:27;;;;;;;11.00;8.25;;;;;;;;;;5058071;28;20421;-74
2022/06/25 00:53:53;;;;;;;10.68;7.72;;;;;;;;;;5054251;28;20059;-73
2022/06/25 00:56:19;;;;;;;9.25;8.35;;;;;;;;;;5061109;28;20057;-74
2022/06/25 00:58:44;;;;;;;9.57;8.60;;;;;;;;;;5052579;28;20029;-74
2022/06/25 01:01:10;;;;;;;10.00;7.72;;;;;;;;;;5052655;28;20070;-74
2022/06/25 01:03:36;;;;;;;8.88;7.97;;;;;;;;;;5055929;28;20032;-74
2022/06/25 01:06:01;;;;;;;8.02;7.22;;;;;;;;;;5050979;28;20028;-73
2022/06/25 01:08:26;;;;;;;7.97;7.18;;;;;;;;;;5054119;28;20425;-75
2022/06/25 01:10:52;;;;;;;10.15;7.30;;;;;;;;;;5059008;28;20409;-74
2022/06/25 01:13:19;;;;;;;11.98;7.32;;;;;;;;;;5059700;28;20033;-74
2022/06/25 01:15:44;;;;;;;10.27;7.53;;;;;;;;;;5059296;28;20509;-74
2022/06/25 01:18:09;;;;;;;10.65;7.15;;;;;;;;;;5054790;28;20028;-74
2022/06/25 01:20:35;;;;;;;9.57;7.07;;;;;;;;;;5062127;28;20042;-74
2022/06/25 01:23:00;;;;;;;8.63;6.90;;;;;;;;;;5060804;28;20280;-74
2022/06/25 01:25:32;;;;;;;8.97;6.63;;;;;;;;;;5057742;28;20386;-73
2022/06/25 01:27:57;;;;;;;7.55;6.82;;;;;;;;;;5058307;28;20020;-74
2022/06/25 01:30:22;;;;;;;8.90;7.32;;;;;;;;;;5061126;28;20038;-75
2022/06/25 01:32:47;;;;;;;10.80;6.70;;;;;;;;;;5058892;28;20474;-73
2022/06/25 01:35:12;;;;;;;8.35;6.25;;;;;;;;;;5054755;28;20363;-74
2022/06/25 01:37:38;;;;;;;7.33;6.53;;;;;;;;;;5051572;28;20052;-74
2022/06/25 01:40:03;;;;;;;7.85;6.35;;;;;;;;;;5053769;28;20454;-74
2022/06/25 01:45:12;;;;;;;9.45;6.47;;;;;;;;;;5055607;28;20135;-73
2022/06/25 01:47:38;;;;;;;6.53;5.70;;;;;;;;;;5053746;28;20474;-73
2022/06/25 01:50:04;;;;;;;8.38;5.95;;;;;;;;;;5051124;28;20052;-74
2022/06/25 01:52:29;;;;;;;8.80;6.03;;;;;;;;;;5053316;28;20028;-73
2022/06/25 01:54:54;;;;;;;6.40;5.77;;;;;;;;;;5056795;28;20028;-76
2022/06/25 01:57:19;;;;;;;7.33;5.27;;;;;;;;;;5054359;28;20020;-74
2022/06/25 01:59:47;;;;;;;7.67;6.00;;;;;;;;;;5055309;28;20297;-74
2022/06/25 02:02:12;;;;;;;7.03;6.18;;;;;;;;;;5055238;28;20265;-73
2022/06/25 02:04:37;;;;;;;11.80;6.40;;;;;;;;;;5053720;28;20021;-75
2022/06/25 02:07:02;;;;;;;6.90;5.70;;;;;;;;;;5053478;28;20596;-74
2022/06/25 02:09:27;;;;;;;6.32;5.72;;;;;;;;;;5059446;28;20020;-74
2022/06/25 02:11:52;;;;;;;6.37;5.30;;;;;;;;;;5057448;28;20058;-74
2022/06/25 02:14:18;;;;;;;7.20;5.40;;;;;;;;;;5059103;28;20033;-75
2022/06/25 02:16:43;;;;;;;10.88;5.82;;;;;;;;;;5056515;28;20299;-74
2022/06/25 02:19:08;;;;;;;6.25;5.70;;;;;;;;;;5050435;28;20103;-73
2022/06/25 02:21:34;;;;;;;6.88;5.80;;;;;;;;;;5052157;28;20024;-73
2022/06/25 02:23:59;;;;;;;7.20;5.25;;;;;;;;;;5054292;28;20028;-75
2022/06/25 02:26:24;;;;;;;7.97;6.37;;;;;;;;;;5054296;28;20063;-75
2022/06/25 02:28:49;;;;;;;7.57;5.97;;;;;;;;;;5057640;28;20021;-74
2022/06/25 02:31:14;;;;;;;7.50;6.27;;;;;;;;;;5056148;28;20195;-74
2022/06/25 02:33:40;;;;;;;8.15;5.95;;;;;;;;;;5057152;28;20066;-73
2022/06/25 02:36:05;;;;;;;8.30;6.17;;;;;;;;;;5056288;28;20498;-74
2022/06/25 02:38:30;;;;;;;6.50;5.82;;;;;;;;;;5060207;28;20116;-74
2022/06/25 02:40:55;;;;;;;6.57;5.37;;;;;;;;;;5062802;28;20028;-74
2022/06/25 02:43:21;;;;;;;8.50;5.40;;;;;;;;;;5059871;28;20337;-75
2022/06/25 02:45:46;;;;;;;8.70;6.35;;;;;;;;;;5057395;28;20033;-74
2022/06/25 02:48:11;;;;;;;6.17;5.57;;;;;;;;;;5059219;28;20076;-76
2022/06/25 02:50:36;;;;;;;8.00;6.07;;;;;;;;;;5060896;28;20269;-74
2022/06/25 02:53:02;;;;;;;6.22;5.30;;;;;;;;;;5054138;28;20395;-74
2022/06/25 03:00:55;;;;;;;6.70;5.53;;;;;;;;;;5058841;28;20068;-74
2022/06/25 03:03:20;;;;;;;7.05;5.20;;;;;;;;;;5060929;28;20103;-74
2022/06/25 03:05:45;;;;;;;5.87;4.60;;;;;;;;;;5062618;28;20453;-74
2022/06/25 03:08:10;;;;;;;6.83;4.87;;;;;;;;;;5060348;28;20033;-74
2022/06/25 03:10:35;;;;;;;7.03;5.45;;;;;;;;;;5062485;28;20032;-74
2022/06/25 03:13:00;;;;;;;6.47;5.37;;;;;;;;;;5061012;28;20040;-75
2022/06/25 03:15:25;;;;;;;7.90;5.40;;;;;;;;;;5064120;28;20044;-75
2022/06/25 03:17:51;;;;;;;12.32;5.13;;;;;;;;;;5067578;28;20017;-75
2022/06/25 03:20:16;;;;;;;8.63;5.60;;;;;;;;;;5063914;28;20044;-76
2022/06/25 03:22:41;;;;;;;7.28;5.70;;;;;;;;;;5069251;28;20032;-75
2022/06/25 03:25:07;;;;;;;8.43;5.33;;;;;;;;;;5063852;28;20052;-75
2022/06/25 03:27:32;;;;;;;6.90;4.68;;;;;;;;;;5063906;28;20791;-75
2022/06/25 03:29:57;;;;;;;8.37;5.07;;;;;;;;;;5061153;28;20134;-75
2022/06/25 03:32:22;;;;;;;5.87;5.00;;;;;;;;;;5062355;28;20525;-75
2022/06/25 03:34:47;;;;;;;6.55;4.95;;;;;;;;;;5064240;28;20016;-74
2022/06/25 03:37:12;;;;;;;6.27;5.27;;;;;;;;;;5065086;28;20039;-75
2022/06/25 03:39:38;;;;;;;6.15;5.22;;;;;;;;;;5065998;28;20140;-74
2022/06/25 03:42:03;;;;;;;7.10;4.72;;;;;;;;;;5061046;28;20024;-74
2022/06/25 03:44:28;;;;;;;8.57;5.00;;;;;;;;;;5066100;28;20031;-75
2022/06/25 03:46:54;;;;;;;7.17;4.97;;;;;;;;;;5065547;28;20050;-74
2022/06/25 03:49:19;;;;;;;6.10;5.30;;;;;;;;;;5058220;28;20048;-74
2022/06/25 03:51:44;;;;;;;7.38;6.18;;;;;;;;;;5063741;28;20076;-73
2022/06/25 03:54:09;;;;;;;7.90;5.83;;;;;;;;;;5060570;28;20029;-74
2022/06/25 03:56:34;;;;;;;6.27;5.60;;;;;;;;;;5067153;28;20025;-73
2022/06/25 03:59:00;;;;;;;8.97;6.07;;;;;;;;;;5064047;28;20950;-73
2022/06/25 04:01:26;;;;;;;7.40;6.07;;;;;;;;;;5061927;28;20281;-74
2022/06/25 04:03:51;;;;;;;7.82;6.43;;;;;;;;;;5061539;28;20021;-73
2022/06/25 04:06:17;;;;;;;9.88;6.45;;;;;;;;;;5062333;28;20021;-76
2022/06/25 04:08:42;;;;;;;8.93;6.57;;;;;;;;;;5065290;28;20036;-74
2022/06/25 04:11:07;;;;;;;10.23;6.47;;;;;;;;;;5062863;28;20830;-76
2022/06/25 04:13:33;;;;;;;6.93;6.22;;;;;;;;;;5064047;28;21314;-74
2022/06/25 04:15:58;;;;;;;9.17;6.83;;;;;;;;;;5063792;28;20024;-75
2022/06/25 04:18:23;;;;;;;9.17;6.57;;;;;;;;;;5069163;28;20311;-76
2022/06/25 04:20:48;;;;;;;12.03;7.90;;;;;;;;;;5056024;28;20264;-76
2022/06/25 04:23:13;;;;;;;11.50;8.40;;;;;;;;;;5063968;28;20648;-80
2022/06/25 04:25:39;;;;;;;13.40;8.53;;;;;;;;;;5063965;28;20028;-75
2022/06/25 04:30:49;;;;;;;12.23;9.77;;;;;;;;;;5065611;28;20038;-76
2022/06/25 04:33:14;;;;;;;10.37;8.90;;;;;;;;;;5063358;28;20017;-76
2022/06/25 04:35:40;;;;;;;12.65;9.02;;;;;;;;;;5068100;28;20539;-75
2022/06/25 04:38:05;;;;;;;11.80;9.00;;;;;;;;;;5064226;28;20048;-76
2022/06/25 04:40:30;;;;;;;8.88;7.93;;;;;;;;;;5063880;28;20016;-80
2022/06/25 04:42:56;;;;;;;12.00;7.82;;;;;;;;;;5062434;28;20426;-76
2022/06/25 04:45:21;;;;;;;9.65;7.50;;;;;;;;;;5058523;28;20050;-75
2022/06/25 04:47:46;;;;;;;10.02;7.45;;;;;;;;;;5063034;28;20028;-75
2022/06/25 04:50:11;;;;;;;7.90;7.10;;;;;;;;;;5059705;28;20051;-78
2022/06/25 04:52:36;;;;;;;8.37;7.47;;;;;;;;;;5059866;28;20300;-76
2022/06/25 04:55:02;;;;;;;8.18;7.38;;;;;;;;;;5063809;28;20344;-76
2022/06/25 04:57:27;;;;;;;11.20;6.97;;;;;;;;;;5059850;28;20078;-78
2022/06/25 04:59:52;;;;;;;8.67;7.50;;;;;;;;;;5057522;28;20024;-78
2022/06/25 05:02:17;;;;;;;11.23;7.05;;;;;;;;;;5053455;28;20071;-75
2022/06/25 05:04:42;;;;;;;17.37;7.30;;;;;;;;;;5056290;28;20028;-74
2022/06/25 05:07:08;;;;;;;10.82;6.95;;;;;;;;;;5055847;28;20041;-74
2022/06/25 05:09:34;;;;;;;7.78;6.55;;;;;;;;;;5058149;28;20147;-74
2022/06/25 05:11:59;;;;;;;9.93;8.30;;;;;;;;;;5055197;28;20027;-73
2022/06/25 05:14:24;;;;;;;8.80;7.22;;;;;;;;;;5055513;28;20025;-74
2022/06/25 05:16:50;;;;;;;8.68;7.53;;;;;;;;;;5054264;28;20937;-76
2022/06/25 05:19:15;;;;;;;15.77;7.65;;;;;;;;;;5056087;28;20025;-74
2022/06/25 05:21:40;;;;;;;8.48;7.43;;;;;;;;;;5056030;28;20422;-77
2022/06/25 05:24:05;;;;;;;7.70;6.47;;;;;;;;;;5055622;28;20058;-77
2022/06/25 05:26:31;;;;;;;8.90;6.65;;;;;;;;;;5054155;28;20021;-76
2022/06/25 05:28:56;;;;;;;9.77;7.20;;;;;;;;;;5057839;28;20099;-74
2022/06/25 05:31:22;;;;;;;9.18;6.65;;;;;;;;;;5052452;28;20021;-77
2022/06/25 05:33:47;;;;;;;6.60;5.88;;;;;;;;;;5057282;28;20464;-79
2022/06/25 05:36:12;;;;;;;6.83;5.67;;;;;;;;;;5059475;28;20150;-74
2022/06/25 05:38:37;;;;;;;6.28;5.25;;;;;;;;;;5056489;28;20036;-77
2022/06/25 05:41:08;;;;;;;6.77;5.20;;;;;;;;;;5056562;28;20469;-78
2022/06/25 05:43:33;;;;;;;7.43;5.45;;;;;;;;;;5054116;28;20265;-72
2022/06/25 05:45:58;;;;;;;6.53;5.20;;;;;;;;;;5053971;28;20086;-75
2022/06/25 05:48:23;;;;;;;8.87;5.33;;;;;;;;;;5053003;28;20634;-83
2022/06/25 05:50:48;;;;;;;7.95;5.05;;;;;;;;;;5055337;28;20016;-82
2022/06/25 05:53:13;;;;;;;15.00;5.27;;;;;;;;;;5054515;28;20518;-80
2022/06/25 05:55:38;;;;;;;6.90;5.10;;;;;;;;;;5055781;28;20017;-82
2022/06/25 05:58:04;;;;;;;7.65;5.43;;;;;;;;;;5055190;28;20585;-75
2022/06/25 06:00:29;;;;;;;7.73;4.90;;;;;;;;;;5055103;28;20032;-70
2022/06/25 06:02:54;;;;;;;5.78;5.28;;;;;;;;;;5054605;28;20318;-77
2022/06/25 06:05:19;;;;;;;9.27;5.10;;;;;;;;;;5060691;28;20050;-81
2022/06/25 06:07:44;;;;;;;8.77;4.97;;;;;;;;;;5063123;28;20273;-74
2022/06/25 06:10:10;;;;;;;10.00;5.18;;;;;;;;;;5060964;28;20349;-76
2022/06/25 06:12:35;;;;;;;5.00;4.20;;;;;;;;;;5062287;28;20064;-80
2022/06/25 06:15:01;;;;;;;10.73;4.72;;;;;;;;;;5059401;28;20020;-80
2022/06/25 06:17:26;;;;;;;6.85;4.43;;;;;;;;;;5059341;28;20052;-77
2022/06/25 06:19:51;;;;;;;5.23;3.67;;;;;;;;;;5056190;28;20032;-79
2022/06/25 06:22:16;;;;;;;5.10;3.93;;;;;;;;;;5056884;28;20276;-84
2022/06/25 06:24:42;;;;;;;6.83;3.60;;;;;;;;;;5060760;28;20296;-74
2022/06/25 06:27:07;;;;;;;6.07;3.20;;;;;;;;;;5057402;28;20528;-72
2022/06/25 06:29:32;;;;;;;4.50;3.03;;;;;;;;;;5055691;28;20032;-74
2022/06/25 06:31:57;;;;;;;4.30;3.90;;;;;;;;;;5056324;28;20037;-74
2022/06/25 06:34:22;;;;;;;4.20;3.60;;;;;;;;;;5056553;28;20341;-74
2022/06/25 06:36:47;;;;;;;3.30;3.00;;;;;;;;;;5057002;28;20070;-74
2022/06/25 06:39:13;;;;;;;4.83;3.50;;;;;;;;;;5057952;28;20758;-75
2022/06/25 06:41:38;;;;;;;3.47;3.17;;;;;;;;;;5069519;28;20020;-79
2022/06/25 06:44:04;;;;;;;4.82;2.80;;;;;;;;;;5064023;28;20421;-80
2022/06/25 06:46:29;;;;;;;5.25;2.60;;;;;;;;;;5066828;28;20040;-77
2022/06/25 06:48:54;;;;;;;4.53;2.50;;;;;;;;;;5059867;28;20025;-76
2022/06/25 06:51:19;;;;;;;4.83;2.70;;;;;;;;;;5061558;28;20111;-78
2022/06/25 06:53:45;;;;;;;2.40;2.17;;;;;;;;;;5060960;28;20395;-75
2022/06/25 06:56:10;;;;;;;5.67;2.50;;;;;;;;;;5060312;28;20103;-71
2022/06/25 06:58:35;;;;;;;3.45;2.30;;;;;;;;;;5056111;28;20291;-76
2022/06/25 07:01:00;;;;;;;2.60;2.40;;;;;;;;;;5054447;28;21175;-77
2022/06/25 07:03:25;;;;;;;2.50;2.30;;;;;;;;;;5058074;28;20747;-83
2022/06/25 07:05:50;;;;;;;2.80;2.20;;;;;;;;;;5059279;28;20107;-87
2022/06/25 07:08:16;;;;;;;4.17;2.40;;;;;;;;;;5051185;28;20131;-79
2022/06/25 07:10:41;;;;;;;3.83;2.42;;;;;;;;;;5055202;28;20020;-85
2022/06/25 07:13:06;;;;;;;3.30;2.97;;;;;;;;;;5056309;28;20097;-75
2022/06/25 07:15:31;;;;;;;6.53;2.70;;;;;;;;;;5055870;28;20281;-76
2022/06/25 07:17:57;;;;;;;3.30;2.33;;;;;;;;;;5056377;28;20108;-74
2022/06/25 07:20:22;;;;;;;4.20;2.35;;;;;;;;;;5056532;28;20036;-75
2022/06/25 07:22:47;;;;;;;10.60;3.30;;;;;;;;;;5056441;28;20036;-79
2022/06/25 07:25:13;;;;;;;7.20;2.90;;;;;;;;;;5058415;28;20028;-85
2022/06/25 07:27:38;;;;;;;4.60;2.95;;;;;;;;;;5053949;28;20101;-80
2022/06/25 07:30:04;;;;;;;5.03;3.03;;;;;;;;;;5056381;28;20470;-73
2022/06/25 07:32:29;;;;;;;4.50;2.72;;;;;;;;;;5056375;28;20082;-79
2022/06/25 07:34:54;;;;;;;6.00;3.63;;;;;;;;;;5054342;28;20028;-75
2022/06/25 07:37:19;;;;;;;4.97;2.67;;;;;;;;;;5055092;28;20130;-83
2022/06/25 07:39:44;;;;;;;5.07;3.13;;;;;;;;;;5057131;28;20051;-86
2022/06/25 07:42:09;;;;;;;5.40;2.70;;;;;;;;;;5055633;28;20028;-78
2022/06/25 07:44:35;;;;;;;5.65;3.10;;;;;;;;;;5056192;28;20040;-80
2022/06/25 07:47:00;;;;;;;5.17;3.53;;;;;;;;;;5052603;28;20473;-82
2022/06/25 07:49:25;;;;;;;7.43;3.67;;;;;;;;;;5051966;28;20123;-75
2022/06/25 07:51:56;;;;;;;4.63;3.30;;;;;;;;;;5053696;28;20407;-77
2022/06/25 07:54:22;;;;;;;8.40;2.95;;;;;;;;;;5051379;28;20122;-80
2022/06/25 07:56:47;;;;;;;6.43;2.72;;;;;;;;;;5062124;28;20108;-77
2022/06/25 07:59:12;;;;;;;4.18;2.75;;;;;;;;;;5056094;28;20115;-78
2022/06/25 08:01:38;;;;;;;3.22;2.40;;;;;;;;;;5060788;28;20024;-78
2022/06/25 08:04:03;;;;;;;2.53;1.77;;;;;;;;;;5060836;28;20455;-73
2022/06/25 08:06:28;;;;;;;4.10;1.80;;;;;;;;;;5062716;28;20116;-77
2022/06/25 08:08:53;;;;;;;2.50;1.63;;;;;;;;;;5057954;28;20021;-73
2022/06/25 08:11:19;;;;;;;2.97;2.00;;;;;;;;;;5060209;28;20459;-75
2022/06/25 08:13:44;;;;;;;1.80;1.70;;;;;;;;;;5066600;28;20020;-72
2022/06/25 08:16:09;;;;;;;2.83;2.33;;;;;;;;;;5061643;28;20139;-75
2022/06/25 08:18:35;;;;;;;2.78;2.22;;;;;;;;;;5056216;28;20111;-72
2022/06/25 08:21:00;;;;;;;2.78;2.35;;;;;;;;;;5060976;28;20026;-74
2022/06/25 08:23:25;;;;;;;3.43;2.50;;;;;;;;;;5068327;28;20032;-75
2022/06/25 08:25:50;;;;;;;2.70;2.47;;;;;;;;;;5063163;28;20269;-75
2022/06/25 08:28:16;;;;;;;2.10;1.80;;;;;;;;;;5058308;28;20691;-75
2022/06/25 08:30:42;;;;;;;2.50;2.17;;;;;;;;;;5056152;28;20016;-73
2022/06/25 08:33:08;;;;;;;2.55;2.03;;;;;;;;;;5055171;28;20257;-73
2022/06/25 08:35:33;;;;;;;3.88;2.20;;;;;;;;;;5051170;28;20029;-76
2022/06/25 08:37:58;;;;;;;3.63;2.70;;;;;;;;;;5059847;28;20023;-76
2022/06/25 08:40:23;;;;;;;5.90;2.72;;;;;;;;;;5053514;28;20758;-74
2022/06/25 08:42:49;;;;;;;5.53;2.70;;;;;;;;;;5058539;28;20070;-75
2022/06/25 08:45:16;;;;;;;2.78;2.30;;;;;;;;;;5058890;28;20030;-74
2022/06/25 08:47:45;;;;;;;3.58;2.95;;;;;;;;;;5060568;28;20129;-74
2022/06/25 08:50:11;;;;;;;3.20;2.90;;;;;;;;;;5052657;28;20028;-71
2022/06/25 08:52:37;;;;;;;4.43;3.42;;;;;;;;;;5059229;28;20035;-72
2022/06/25 08:55:03;;;;;;;3.50;2.75;;;;;;;;;;5059650;28;20070;-72
2022/06/25 08:57:29;;;;;;;3.92;3.25;;;;;;;;;;5060616;28;20396;-75
2022/06/25 08:59:54;;;;;;;4.55;2.85;;;;;;;;;;5058631;28;20075;-74
2022/06/25 09:02:19;;;;;;;5.35;3.17;;;;;;;;;;5061694;28;20838;-73
2022/06/25 09:04:45;;;;;;;6.85;3.45;;;;;;;;;;5061546;28;20020;-73
2022/06/25 09:07:11;;;;;;;3.70;3.40;;;;;;;;;;5058259;28;20056;-75
2022/06/25 09:09:36;;;;;;;9.25;4.13;;;;;;;;;;5059306;28;20036;-74
2022/06/25 09:12:05;;;;;;;4.20;3.20;;;;;;;;;;5056287;28;20071;-73
2022/06/25 09:14:31;;;;;;;8.90;3.72;;;;;;;;;;5060997;28;20025;-72
2022/06/25 09:16:56;;;;;;;4.57;4.18;;;;;;;;;;5055792;28;20469;-75
2022/06/25 09:19:29;;;;;;;4.15;3.45;;;;;;;;;;5063643;28;20044;-73
2022/06/25 09:21:54;;;;;;;6.57;3.60;;;;;;;;;;5060363;28;20111;-77
2022/06/25 09:24:19;;;;;;;6.27;4.07;;;;;;;;;;5066114;28;20036;-73
2022/06/25 09:26:51;;;;;;;5.97;4.30;;;;;;;;;;5059087;28;20272;-80
2022/06/25 09:29:16;;;;;;;6.60;3.88;;;;;;;;;;5054790;28;20811;-72
2022/06/25 09:31:42;;;;;;;5.72;3.80;;;;;;;;;;5063088;28;20518;-74
2022/06/25 09:34:07;;;;;;;5.80;3.80;;;;;;;;;;5068740;28;20628;-75
2022/06/25 09:36:33;;;;;;;6.00;3.75;;;;;;;;;;5067397;28;20268;-78
2022/06/25 09:38:58;;;;;;;5.38;3.83;;;;;;;;;;5059903;28;20024;-75
2022/06/25 09:41:24;;;;;;;6.53;4.30;;;;;;;;;;5059366;28;20040;-74
2022/06/25 09:43:51;;;;;;;5.95;4.25;;;;;;;;;;5056603;28;20075;-74
2022/06/25 09:46:16;;;;;;;7.05;4.50;;;;;;;;;;5055748;28;20504;-74
2022/06/25 09:48:41;;;;;;;7.43;4.47;;;;;;;;;;5056430;28;20028;-76
2022/06/25 09:51:10;;;;;;;6.55;4.30;;;;;;;;;;5058151;28;20379;-71
2022/06/25 09:53:46;;;;;;;4.85;4.10;;;;;;;;;;5057075;28;20063;-77
2022/06/25 09:56:13;;;;;;;4.60;4.13;;;;;;;;;;5056420;28;20054;-73
2022/06/25 09:58:38;;;;;;;4.57;3.35;;;;;;;;;;5056477;28;20028;-72
2022/06/25 10:01:04;;;;;;;5.80;3.42;;;;;;;;;;5057881;28;20101;-73
2022/06/25 10:03:30;;;;;;;8.18;4.60;;;;;;;;;;5058450;28;20074;-74
2022/06/25 10:05:55;;;;;;;6.72;4.50;;;;;;;;;;5055215;28;20538;-72
2022/06/25 10:08:21;;;;;;;6.93;3.95;;;;;;;;;;5071062;28;20524;-77
2022/06/25 10:10:50;;;;;;;12.00;4.32;;;;;;;;;;5055216;28;20031;-74
2022/06/25 10:13:15;;;;;;;8.13;4.13;;;;;;;;;;5065268;28;20510;-73
2022/06/25 10:15:40;;;;;;;8.65;4.38;;;;;;;;;;5055028;28;20036;-73
2022/06/25 10:18:07;;;;;;;4.53;4.00;;;;;;;;;;5056431;28;20020;-72
2022/06/25 10:20:32;;;;;;;5.95;3.67;;;;;;;;;;5056289;28;20837;-74
2022/06/25 10:22:58;;;;;;;4.90;3.90;;;;;;;;;;5057950;28;20066;-73
2022/06/25 10:25:25;;;;;;;4.97;3.67;;;;;;;;;;5056078;28;20474;-73
2022/06/25 10:27:51;;;;;;;4.22;3.45;;;;;;;;;;5064015;28;20021;-74
2022/06/25 10:30:35;;;;;;;7.88;3.90;;;;;;;;;;5055920;28;20501;-74
2022/06/25 10:33:00;;;;;;;;;;;;;;;;;;5065015;28;20419;-72
2022/06/25 10:35:27;;;;;;;4.57;4.13;;;;;;;;;;5062388;28;19914;-74
2022/06/25 10:38:12;;;;;;;5.88;3.97;;;;;;;;;;5068999;28;20518;-74
2022/06/25 10:40:57;;;;;;;6.35;4.38;;;;;;;;;;5063882;28;20452;-73
2022/06/25 10:43:36;;;;;;;4.72;3.60;;;;;;;;;;5070528;28;20487;-71
2022/06/25 10:46:21;;;;;;;4.10;3.40;;;;;;;;;;5084610;28;20043;-73
2022/06/25 10:49:08;;;;;;;4.25;3.28;;;;;;;;;;5061764;28;20025;-73
2022/06/25 10:51:42;;;;;;;7.38;4.10;;;;;;;;;;5056246;28;20287;-72
2022/06/25 10:54:12;;;;;;;5.60;3.60;;;;;;;;;;5069153;28;20097;-72
2022/06/25 10:56:44;;;;;;;3.67;3.38;;;;;;;;;;5065282;28;20021;-72
2022/06/25 10:59:09;;;;;;;6.65;3.63;;;;;;;;;;5057081;28;20487;-72
2022/06/25 11:01:35;;;;;;;6.30;3.85;;;;;;;;;;5059282;28;20028;-74
2022/06/25 11:04:01;;;;;;;5.03;3.53;;;;;;;;;;5063273;28;20017;-71
2022/06/25 11:06:38;;;;;;;4.75;3.92;;;;;;;;;;5054130;28;20028;-72
2022/06/25 11:09:08;;;;;;;6.60;3.58;;;;;;;;;;5062852;28;20151;-72
2022/06/25 11:11:34;;;;;;;6.85;3.85;;;;;;;;;;5062563;28;20699;-71
2022/06/25 11:14:01;;;;;;;4.07;3.60;;;;;;;;;;5063469;28;20060;-72
2022/06/25 11:16:26;;;;;;;6.90;3.28;;;;;;;;;;5066505;28;20628;-70
2022/06/25 11:18:53;;;;;;;4.80;3.08;;;;;;;;;;5072249;28;20139;-75
2022/06/25 11:21:25;;;;;;;4.05;2.50;;;;;;;;;;5062482;28;20064;-71
2022/06/25 11:23:50;;;;;;;6.78;3.90;;;;;;;;;;5065988;28;20082;-76
2022/06/25 11:29:00;;;;;;;3.33;2.95;;;;;;;;;;5071119;28;20319;-74
2022/06/25 11:31:26;;;;;;;3.60;2.63;;;;;;;;;;5060966;28;20017;-72
2022/06/25 11:33:52;;;;;;;3.80;2.60;;;;;;;;;;5070676;28;20019;-73
2022/06/25 11:36:18;;;;;;;3.65;2.50;;;;;;;;;;5074117;28;20125;-74
2022/06/25 11:38:49;;;;;;;4.70;2.42;;;;;;;;;;5069104;28;20122;-74
2022/06/25 11:41:21;;;;;;;4.22;2.58;;;;;;;;;;5069850;28;20032;-72
2022/06/25 11:43:46;;;;;;;6.32;3.08;;;;;;;;;;5061680;28;20099;-73
2022/06/25 11:46:13;;;;;;;4.97;3.17;;;;;;;;;;5063215;28;20103;-72
2022/06/25 11:48:39;;;;;;;5.25;2.50;;;;;;;;;;5059471;28;20024;-74
2022/06/25 11:51:04;;;;;;;3.95;2.85;;;;;;;;;;5072095;28;20039;-74
2022/06/25 11:53:34;;;;;;;5.67;3.00;;;;;;;;;;5068135;28;20063;-73
2022/06/25 11:56:00;;;;;;;3.45;2.50;;;;;;;;;;5058213;28;20374;-73
2022/06/25 11:58:26;;;;;;;3.38;2.60;;;;;;;;;;5063584;28;20635;-75
2022/06/25 12:00:56;;;;;;;3.40;2.00;;;;;;;;;;5058989;28;20472;-74
2022/06/25 12:03:22;;;;;;;6.85;2.40;;;;;;;;;;5062662;28;20127;-72
2022/06/25 12:05:48;;;;;;;6.68;2.50;;;;;;;;;;5054399;28;20104;-74
2022/06/25 12:08:14;;;;;;;3.40;1.90;;;;;;;;;;5058402;28;20024;-74
2022/06/25 12:10:42;;;;;;;3.35;1.95;;;;;;;;;;5057390;28;20453;-71
2022/06/25 12:13:07;;;;;;;3.00;1.73;;;;;;;;;;5057421;28;20043;-73
2022/06/25 12:15:32;;;;;;;2.25;1.80;;;;;;;;;;5068895;28;20039;-72
2022/06/25 12:18:04;;;;;;;1.98;1.60;;;;;;;;;;5060144;28;20548;-71
2022/06/25 12:20:29;;;;;;;2.42;1.20;;;;;;;;;;5071696;28;20777;-74
2022/06/25 12:22:56;;;;;;;2.50;1.57;;;;;;;;;;5066747;28;20078;-71
2022/06/25 12:25:25;;;;;;;3.15;1.80;;;;;;;;;;5062939;28;20036;-72
2022/06/25 12:27:51;;;;;;;3.00;1.55;;;;;;;;;;5062363;28;20448;-72
2022/06/25 12:30:20;;;;;;;2.97;1.57;;;;;;;;;;5062525;28;20103;-73
2022/06/25 12:32:45;;;;;;;1.50;1.38;;;;;;;;;;5070504;28;20273;-72
2022/06/25 12:35:17;;;;;;;3.17;1.53;;;;;;;;;;5079366;28;20020;-72
2022/06/25 12:37:43;;;;;;;3.10;1.77;;;;;;;;;;5079057;28;20019;-72
2022/06/25 12:40:09;;;;;;;2.00;1.50;;;;;;;;;;5062821;28;20032;-73
2022/06/25 12:42:34;;;;;;;1.42;1.33;;;;;;;;;;5072702;28;20477;-72
2022/06/25 12:44:59;;;;;;;1.90;1.30;;;;;;;;;;5082808;28;20023;-74
2022/06/25 12:47:25;;;;;;;2.45;1.70;;;;;;;;;;5069325;28;20273;-75
2022/06/25 12:49:55;;;;;;;2.15;1.40;;;;;;;;;;5074933;28;20024;-74
2022/06/25 12:52:22;;;;;;;3.20;1.50;;;;;;;;;;5060510;28;20029;-74
2022/06/25 12:54:48;;;;;;;2.33;1.70;;;;;;;;;;5072407;28;20398;-72
2022/06/25 12:57:27;;;;;;;5.25;1.60;;;;;;;;;;5069353;28;20082;-73
2022/06/25 12:59:53;;;;;;;1.42;1.27;;;;;;;;;;5064367;28;20080;-74
2022/06/25 13:02:19;;;;;;;2.88;1.23;;;;;;;;;;5064572;28;20029;-76
2022/06/25 13:04:44;;;;;;;3.85;1.33;;;;;;;;;;5062279;28;20062;-73
2022/06/25 13:07:11;;;;;;;2.00;1.73;;;;;;;;;;5071534;28;20039;-74
2022/06/25 13:09:37;;;;;;;1.50;1.30;;;;;;;;;;5070737;28;20286;-73
2022/06/25 13:12:02;;;;;;;1.55;1.45;;;;;;;;;;5062497;28;20523;-70
2022/06/25 13:14:27;;;;;;;1.73;1.55;;;;;;;;;;5061561;28;20017;-70
2022/06/25 13:16:52;;;;;;;1.52;1.42;;;;;;;;;;5063218;28;20458;-71
2022/06/25 13:19:18;;;;;;;1.80;1.67;;;;;;;;;;5068108;28;20142;-69
2022/06/25 13:21:43;;;;;;;3.23;1.73;;;;;;;;;;5053038;28;20029;-71
2022/06/25 13:24:08;;;;;;;1.70;1.60;;;;;;;;;;5059419;28;20269;-72
2022/06/25 13:26:34;;;;;;;2.47;1.45;;;;;;;;;;5064750;28;20043;-72
2022/06/25 13:28:59;;;;;;;1.87;1.50;;;;;;;;;;5056263;28;20025;-70
2022/06/25 13:31:24;;;;;;;2.03;1.60;;;;;;;;;;5070554;28;20032;-75
2022/06/25 13:33:49;;;;;;;4.20;1.43;;;;;;;;;;5073352;28;20493;-70
2022/06/25 13:36:14;;;;;;;1.48;1.38;;;;;;;;;;5069780;28;20111;-72
2022/06/25 13:38:40;;;;;;;1.50;1.40;;;;;;;;;;5055949;28;20029;-71
2022/06/25 13:41:05;;;;;;;3.38;1.70;;;;;;;;;;5066739;28;20054;-72
2022/06/25 13:43:30;;;;;;;1.50;1.40;;;;;;;;;;5061440;28;20037;-71
2022/06/25 13:45:55;;;;;;;1.88;1.60;;;;;;;;;;5065981;28;20303;-73
2022/06/25 13:48:20;;;;;;;3.27;1.60;;;;;;;;;;5067612;28;20054;-71
2022/06/25 13:50:46;;;;;;;1.40;1.30;;;;;;;;;;5067306;28;20027;-72
2022/06/25 13:53:11;;;;;;;2.50;2.17;;;;;;;;;;5065022;28;20378;-71
2022/06/25 13:55:36;;;;;;;2.60;2.23;;;;;;;;;;5071571;28;20157;-74
2022/06/25 13:58:01;;;;;;;4.57;1.55;;;;;;;;;;5073398;28;20039;-72
2022/06/25 14:00:27;;;;;;;4.28;1.85;;;;;;;;;;5042502;28;20047;-69
2022/06/25 14:02:52;;;;;;;4.13;1.70;;;;;;;;;;5049576;28;20025;-71
2022/06/25 14:05:17;;;;;;;1.53;1.40;;;;;;;;;;5056063;28;20280;-70
2022/06/25 14:07:42;;;;;;;1.80;1.70;;;;;;;;;;5067600;28;20147;-72
2022/06/25 14:10:08;;;;;;;1.50;1.40;;;;;;;;;;5061349;28;20043;-70
2022/06/25 14:12:33;;;;;;;1.88;1.50;;;;;;;;;;5056668;28;20134;-72
2022/06/25 14:14:58;;;;;;;3.73;1.70;;;;;;;;;;5058422;28;20031;-72
2022/06/25 14:17:23;;;;;;;1.50;1.40;;;;;;;;;;5058186;28;20099;-71
2022/06/25 14:19:49;;;;;;;2.37;1.53;;;;;;;;;;5057267;28;20479;-70
2022/06/25 14:22:14;;;;;;;4.32;1.70;;;;;;;;;;5062728;28;20055;-72
2022/06/25 14:27:23;;;;;;;5.38;1.70;;;;;;;;;;5060410;28;20031;-69
2022/06/25 14:29:48;;;;;;;2.20;1.73;;;;;;;;;;5056365;28;20033;-71
2022/06/25 14:32:13;;;;;;;2.30;2.20;;;;;;;;;;5062824;28;20043;-75
2022/06/25 14:34:38;;;;;;;1.60;1.50;;;;;;;;;;5064619;28;20359;-75
2022/06/25 14:42:31;;;;;;;1.90;1.50;;;;;;;;;;5067100;28;19919;-75
2022/06/25 14:44:57;;;;;;;2.87;1.80;;;;;;;;;;5068164;28;20032;-76
2022/06/25 14:47:22;;;;;;;2.20;1.63;;;;;;;;;;5070701;28;20526;-74
2022/06/25 14:49:47;;;;;;;2.17;1.70;;;;;;;;;;5072248;28;21086;-76
2022/06/25 14:52:12;;;;;;;3.08;1.90;;;;;;;;;;5063487;28;20031;-77
2022/06/25 14:54:37;;;;;;;2.78;1.95;;;;;;;;;;5070007;28;20022;-78
2022/06/25 14:57:03;;;;;;;4.17;1.90;;;;;;;;;;5073050;28;20063;-78
2022/06/25 14:59:29;;;;;;;2.80;1.80;;;;;;;;;;5076376;28;20075;-71